Time;durP1;ratioP1;P1;durP2;ratioP2;P2;SDS_P1;SDS_P2;PMS_P1;PMS_P2;Temp;Humidity;BMP_temperature;BMP_pressure;BME280_temperature;BME280_humidity;BME280_pressure;Samples;Min_cycle;Max_cycle;Signal;HPM_P1;HPM_P2
2023/06/25 00:00:28;;;;;;;;;;;;;;;18.55;54.95;98504.19;5078896;28;19930;-67
2023/06/25 00:02:55;;;;;;;;;;;;;;;18.56;55.07;98500.28;5087814;28;19931;-66
2023/06/25 00:05:24;;;;;;;;;;;;;;;18.53;54.73;98503.72;5082646;28;19933;-66
2023/06/25 00:07:52;;;;;;;;;;;;;;;18.43;54.90;98505.03;5082497;28;20027;-66
2023/06/25 00:10:20;;;;;;;;;;;;;;;18.43;54.61;98507.78;5079463;28;19931;-65
2023/06/25 00:12:48;;;;;;;;;;;;;;;18.41;54.62;98504.56;5081173;28;20400;-67
2023/06/25 00:15:15;;;;;;;;;;;;;;;18.28;54.54;98512.06;5077449;28;19974;-65
2023/06/25 00:17:47;;;;;;;;;;;;;;;18.33;54.43;98511.03;5078043;28;19932;-65
2023/06/25 00:20:16;;;;;;;;;;;;;;;18.30;54.25;98498.75;5085557;28;19977;-65
2023/06/25 00:22:45;;;;;;;;;;;;;;;18.30;53.98;98498.75;5057660;28;20051;-66
2023/06/25 00:25:31;;;;;;;;;;;;;;;18.31;53.85;98494.03;5065397;28;19924;-65
2023/06/25 00:28:00;;;;;;;;;;;;;;;18.29;53.72;98488.09;5078009;28;20427;-65
2023/06/25 00:30:31;;;;;;;;;;;;;;;18.27;54.11;98493.97;5065021;28;20033;-65
2023/06/25 00:32:58;;;;;;;;;;;;;;;18.24;54.12;98489.13;5078884;28;19924;-66
2023/06/25 00:35:27;;;;;;;;;;;;;;;18.40;53.80;98494.72;5061613;28;19931;-65
2023/06/25 00:38:01;;;;;;;;;;;;;;;18.34;53.77;98482.34;5085089;28;19924;-65
2023/06/25 00:40:29;;;;;;;;;;;;;;;18.24;54.01;98486.38;5065217;28;19963;-65
2023/06/25 00:42:58;;;;;;;;;;;;;;;18.16;54.43;98473.56;5064138;28;20097;-65
2023/06/25 00:45:26;;;;;;;;;;;;;;;18.19;54.18;98472.88;5088249;28;20420;-65
2023/06/25 00:47:55;;;;;;;;;;;;;;;18.16;54.06;98481.00;5061879;28;19924;-65
2023/06/25 00:50:25;;;;;;;;;;;;;;;18.12;53.95;98469.13;5058842;28;19982;-67
2023/06/25 00:52:53;;;;;;;;;;;;;;;18.08;54.40;98474.50;5063238;28;20327;-66
2023/06/25 00:55:22;;;;;;;;;;;;;;;18.13;54.36;98471.53;5101312;28;20262;-65
2023/06/25 00:57:51;;;;;;;;;;;;;;;18.12;54.83;98469.13;5097050;28;19938;-66
2023/06/25 01:00:19;;;;;;;;;;;;;;;;;;5063426;28;19974;-65
2023/06/25 01:02:49;;;;;;;;;;;;;;;18.02;nan;98475.91;5068272;28;19932;-65
2023/06/25 01:05:18;;;;;;;;;;;;;;;18.03;nan;98470.06;5064061;28;20380;-65
2023/06/25 01:07:46;;;;;;;;;;;;;;;17.98;nan;98477.75;5064497;28;20011;-65
2023/06/25 01:10:14;;;;;;;;;;;;;;;18.01;nan;98477.06;5078052;28;19927;-66
2023/06/25 01:12:43;;;;;;;;;;;;;;;18.02;nan;98464.91;5097955;28;20361;-65
2023/06/25 01:15:11;;;;;;;;;;;;;;;18.03;nan;98461.81;5083956;28;20331;-66
2023/06/25 01:17:39;;;;;;;;;;;;;;;17.95;nan;98460.00;5083345;28;19924;-65
2023/06/25 01:20:10;;;;;;;;;;;;;;;17.92;nan;98460.69;5063871;28;19932;-65
2023/06/25 01:22:40;;;;;;;;;;;;;;;17.87;nan;98460.91;5088066;28;19967;-65
2023/06/25 01:25:10;;;;;;;;;;;;;;;17.81;nan;98459.56;5085961;28;20024;-65
2023/06/25 01:27:38;;;;;;;;;;;;;;;17.76;nan;98463.34;5096008;28;19928;-66
2023/06/25 01:30:07;;;;;;;;;;;;;;;17.74;nan;98456.59;5071126;28;19951;-65
2023/06/25 01:32:35;;;;;;;;;;;;;;;17.78;nan;98461.03;5060794;28;20344;-65
2023/06/25 01:35:03;;;;;;;;;;;;;;;17.67;nan;98461.81;5085382;28;19936;-67
2023/06/25 01:37:31;;;;;;;;;;;;;;;17.71;nan;98455.28;5068199;28;19931;-68
2023/06/25 01:40:02;;;;;;;;;;;;;;;17.65;nan;98450.38;5084635;28;20343;-65
2023/06/25 01:42:30;;;;;;;;;;;;;;;17.66;nan;98458.28;5060247;28;19962;-65
2023/06/25 01:44:58;;;;;;;;;;;;;;;17.65;nan;98456.69;5083584;28;19978;-65
2023/06/25 01:47:26;;;;;;;;;;;;;;;17.66;nan;98451.97;5066678;28;19967;-65
2023/06/25 01:49:54;;;;;;;;;;;;;;;17.59;nan;98443.53;5078540;28;19924;-65
2023/06/25 01:52:22;;;;;;;;;;;;;;;17.65;nan;98442.13;5065823;28;19974;-68
2023/06/25 01:54:50;;;;;;;;;;;;;;;17.64;nan;98435.03;5071848;28;20371;-66
2023/06/25 01:57:19;;;;;;;;;;;;;;;17.53;nan;98440.22;5070775;28;20357;-65
2023/06/25 01:59:47;;;;;;;;;;;;;;;17.48;nan;98426.69;5065717;28;19934;-66
2023/06/25 02:02:15;;;;;;;;;;;;;;;17.51;nan;98434.22;5061345;28;19965;-65
2023/06/25 02:04:43;;;;;;;;;;;;;;;17.42;nan;98431.63;5066971;28;20022;-65
2023/06/25 02:07:12;;;;;;;;;;;;;;;17.37;nan;98422.81;5065465;28;20035;-65
2023/06/25 02:09:39;;;;;;;;;;;;;;;17.42;nan;98423.38;5062450;28;19924;-65
2023/06/25 02:12:08;;;;;;;;;;;;;;;17.35;nan;98425.09;5082197;28;19925;-65
2023/06/25 02:14:38;;;;;;;;;;;;;;;17.22;nan;98427.03;5065638;28;19940;-65
2023/06/25 02:17:06;;;;;;;;;;;;;;;17.20;nan;98427.34;5067641;28;20442;-65
2023/06/25 02:19:34;;;;;;;;;;;;;;;17.25;nan;98427.13;5083105;28;20018;-65
2023/06/25 02:22:02;;;;;;;;;;;;;;;17.22;nan;98421.53;5091761;28;19955;-65
2023/06/25 02:24:30;;;;;;;;;;;;;;;17.23;nan;98418.44;5065877;28;20447;-65
2023/06/25 02:26:58;;;;;;;;;;;;;;;17.19;nan;98425.75;5068545;28;19924;-66
2023/06/25 02:29:25;;;;;;;;;;;;;;;17.27;nan;98424.06;5082647;28;19928;-65
2023/06/25 02:31:55;;;;;;;;;;;;;;;17.28;nan;98420.97;5056369;28;20353;-65
2023/06/25 02:34:22;;;;;;;;;;;;;;;17.29;nan;98417.06;5059490;28;20514;-65
2023/06/25 02:36:50;;;;;;;;;;;;;;;17.25;nan;98405.16;5083250;28;19928;-64
2023/06/25 02:39:18;;;;;;;;;;;;;;;17.21;nan;98409.75;5065266;28;19932;-65
2023/06/25 02:41:48;;;;;;;;;;;;;;;17.22;nan;98416.06;5095589;28;19960;-66
2023/06/25 02:44:16;;;;;;;;;;;;;;;17.22;nan;98414.09;5067156;28;20719;-64
2023/06/25 02:46:44;;;;;;;;;;;;;;;17.20;nan;98416.38;5069835;28;19974;-65
2023/06/25 02:49:15;;;;;;;;;;;;;;;17.17;nan;98419.81;5059157;28;19927;-64
2023/06/25 02:51:43;;;;;;;;;;;;;;;17.08;nan;98418.31;5076164;28;20047;-65
2023/06/25 02:54:11;;;;;;;;;;;;;;;16.98;nan;98423.09;5056603;28;19952;-64
2023/06/25 02:56:39;;;;;;;;;;;;;;;16.90;nan;98413.03;5062645;28;19925;-65
2023/06/25 02:59:07;;;;;;;;;;;;;;;16.89;nan;98421.63;5062591;28;19928;-66
2023/06/25 03:01:36;;;;;;;;;;;;;;;16.90;nan;98417.72;5068066;28;20328;-65
2023/06/25 03:04:04;;;;;;;;;;;;;;;16.85;nan;98416.00;5065631;28;19928;-65
2023/06/25 03:06:36;;;;;;;;;;;;;;;16.91;nan;98416.59;5062899;28;19930;-65
2023/06/25 03:09:04;;;;;;;;;;;;;;;16.89;nan;98408.69;5070133;28;19939;-65
2023/06/25 03:11:31;;;;;;;;;;;;;;;16.96;nan;98410.88;5066011;28;20009;-66
2023/06/25 03:14:00;;;;;;;;;;;;;;;16.95;nan;98410.06;5085082;28;19932;-65
2023/06/25 03:16:28;;;;;;;;;;;;;;;16.99;nan;98412.94;5062534;28;19960;-65
2023/06/25 03:18:56;;;;;;;;;;;;;;;16.95;nan;98406.53;5066887;28;20147;-65
2023/06/25 03:21:24;;;;;;;;;;;;;;;16.96;nan;98408.13;5074456;28;20430;-65
2023/06/25 03:23:53;;;;;;;;;;;;;;;17.00;nan;98406.31;5063432;28;19955;-65
2023/06/25 03:26:22;;;;;;;;;;;;;;;16.93;nan;98406.84;5062608;28;20026;-67
2023/06/25 03:28:51;;;;;;;;;;;;;;;16.95;nan;98406.53;5066009;28;19973;-65
2023/06/25 03:31:21;;;;;;;;;;;;;;;16.95;nan;98407.34;5067979;28;19929;-64
2023/06/25 03:33:52;;;;;;;;;;;;;;;16.96;nan;98408.13;5063936;28;19932;-65
2023/06/25 03:36:21;;;;;;;;;;;;;;;16.90;nan;98409.50;5067631;28;19924;-66
2023/06/25 03:38:49;;;;;;;;;;;;;;;16.89;nan;98419.69;5065283;28;19924;-65
2023/06/25 03:41:18;;;;;;;;;;;;;;;16.94;nan;98415.91;5059440;28;19928;-64
2023/06/25 03:43:47;;;;;;;;;;;;;;;16.99;nan;98407.44;5057706;28;19933;-65
2023/06/25 03:46:15;;;;;;;;;;;;;;;16.95;nan;98412.81;5080570;28;19924;-64
2023/06/25 03:48:44;;;;;;;;;;;;;;;16.95;nan;98406.53;5068377;28;19931;-65
2023/06/25 03:51:14;;;;;;;;;;;;;;;16.98;nan;98412.13;5063867;28;19924;-65
2023/06/25 03:53:44;;;;;;;;;;;;;;;16.85;nan;98409.72;5064553;28;20297;-65
2023/06/25 03:56:15;;;;;;;;;;;;;;;16.84;nan;98410.88;5056955;28;19928;-65
2023/06/25 03:58:44;;;;;;;;;;;;;;;16.82;nan;98410.38;5080312;28;19925;-64
2023/06/25 04:01:12;;;;;;;;;;;;;;;16.79;nan;98408.34;5080049;28;20029;-65
2023/06/25 04:03:40;;;;;;;;;;;;;;;16.86;nan;98408.56;5082061;28;20340;-65
2023/06/25 04:06:07;;;;;;;;;;;;;;;16.84;nan;98402.63;5053373;28;19928;-65
2023/06/25 04:08:39;;;;;;;;;;;;;;;16.77;nan;98400.44;5056274;28;19939;-65
2023/06/25 04:11:08;;;;;;;;;;;;;;;16.76;nan;98404.31;5047233;28;20404;-65
2023/06/25 04:13:36;;;;;;;;;;;;;;;16.85;nan;98404.22;5043471;28;19976;-65
2023/06/25 04:16:07;;;;;;;;;;;;;;;16.79;nan;98400.09;5040741;28;20381;-66
2023/06/25 04:18:37;;;;;;;;;;;;;;;16.81;nan;98397.81;5041419;28;19925;-65
2023/06/25 04:21:05;;;;;;;;;;;;;;;16.80;nan;98398.97;5048484;28;20023;-66
2023/06/25 04:23:33;;;;;;;;;;;;;;;16.77;nan;98401.22;5044503;28;19925;-65
2023/06/25 04:26:01;;;;;;;;;;;;;;;16.88;nan;98400.78;5041887;28;19925;-65
2023/06/25 04:28:29;;;;;;;;;;;;;;;16.93;nan;98403.31;5047933;28;20767;-64
2023/06/25 04:30:56;;;;;;;;;;;;;;;16.88;nan;98400.78;5044425;28;19925;-66
2023/06/25 04:33:26;;;;;;;;;;;;;;;16.93;nan;98397.81;5048556;28;20285;-64
2023/06/25 04:35:53;;;;;;;;;;;;;;;16.98;nan;98400.34;5046522;28;19929;-64
2023/06/25 04:38:22;;;;;;;;;;;;;;;16.87;nan;98394.50;5054065;28;19939;-65
2023/06/25 04:40:49;;;;;;;;;;;;;;;16.94;nan;98404.94;5050055;28;19987;-64
2023/06/25 04:43:17;;;;;;;;;;;;;;;17.00;nan;98403.56;5069450;28;20305;-65
2023/06/25 04:45:46;;;;;;;;;;;;;;;17.08;nan;98399.91;5049631;28;19925;-66
2023/06/25 04:48:14;;;;;;;;;;;;;;;17.10;nan;98402.28;5045613;28;20029;-64
2023/06/25 04:50:43;;;;;;;;;;;;;;;17.09;nan;98407.00;5047733;28;20358;-64
2023/06/25 04:53:11;;;;;;;;;;;;;;;17.10;nan;98399.56;5055454;28;20138;-65
2023/06/25 04:55:38;;;;;;;;;;;;;;;17.07;nan;98390.06;5060547;28;19925;-64
2023/06/25 04:58:06;;;;;;;;;;;;;;;17.06;nan;98396.72;5069512;28;20578;-64
2023/06/25 05:00:34;;;;;;;;;;;;;;;17.06;nan;98393.97;5057570;28;19964;-67
2023/06/25 05:03:02;;;;;;;;;;;;;;;17.20;nan;98399.91;5066320;28;19968;-64
2023/06/25 05:05:30;;;;;;;;;;;;;;;17.32;nan;98392.84;5075112;28;19938;-65
2023/06/25 05:08:01;;;;;;;;;;;;;;;17.36;nan;98396.47;5078595;28;19931;-64
2023/06/25 05:10:29;;;;;;;;;;;;;;;17.28;nan;98399.00;5084744;28;20018;-64
2023/06/25 05:12:57;;;;;;;;;;;;;;;17.39;nan;98393.03;5065760;28;19928;-65
2023/06/25 05:15:26;;;;;;;;;;;;;;;17.47;nan;98397.59;5085293;28;20440;-65
2023/06/25 05:17:54;;;;;;;;;;;;;;;17.58;nan;98390.53;5063661;28;19970;-65
2023/06/25 05:20:22;;;;;;;;;;;;;;;17.65;nan;98396.22;5070531;28;19935;-64
2023/06/25 05:22:49;;;;;;;;;;;;;;;17.68;nan;98400.22;5086274;28;19963;-64
2023/06/25 05:25:18;;;;;;;;;;;;;;;17.75;nan;98390.28;5081637;28;19928;-64
2023/06/25 05:27:46;;;;;;;;;;;;;;;17.83;nan;98390.50;5080992;28;19931;-65
2023/06/25 05:30:14;;;;;;;;;;;;;;;17.78;nan;98389.56;5077449;28;19932;-64
2023/06/25 05:32:42;;;;;;;;;;;;;;;17.84;nan;98392.09;5081141;28;19924;-65
2023/06/25 05:35:10;;;;;;;;;;;;;;;17.89;nan;98389.09;5076786;28;19935;-64
2023/06/25 05:37:38;;;;;;;;;;;;;;;17.95;nan;98384.94;5080879;28;20392;-65
2023/06/25 05:40:06;;;;;;;;;;;;;;;17.93;nan;98390.00;5079185;28;20015;-65
2023/06/25 05:42:35;;;;;;;;;;;;;;;18.01;nan;98392.63;5081586;28;20019;-64
2023/06/25 05:45:03;;;;;;;;;;;;;;;18.09;nan;98388.13;5061778;28;19925;-65
2023/06/25 05:47:33;;;;;;;;;;;;;;;18.08;nan;98386.53;5080926;28;19931;-64
2023/06/25 05:50:01;;;;;;;;;;;;;;;18.14;nan;98384.31;5081947;28;19931;-64
2023/06/25 05:52:29;;;;;;;;;;;;;;;18.21;nan;98385.31;5082968;28;20004;-65
2023/06/25 05:54:56;;;;;;;;;;;;;;;18.29;nan;98389.09;5066681;28;20243;-65
2023/06/25 05:57:24;;;;;;;;;;;;;;;18.36;nan;98377.47;5089033;28;20460;-64
2023/06/25 05:59:53;;;;;;;;;;;;;;;18.45;nan;98383.63;5065329;28;20028;-65
2023/06/25 06:02:21;;;;;;;;;;;;;;;18.52;nan;98379.09;5064720;28;19974;-65
2023/06/25 06:04:49;;;;;;;;;;;;;;;18.56;nan;98380.00;5078688;28;19932;-66
2023/06/25 06:07:17;;;;;;;;;;;;;;;18.68;nan;98376.41;5061314;28;20042;-66
2023/06/25 06:09:45;;;;;;;;;;;;;;;18.71;nan;98372.16;5063913;28;19925;-66
2023/06/25 06:12:12;;;;;;;;;;;;;;;18.77;nan;98374.28;5059088;28;19929;-66
2023/06/25 06:14:40;;;;;;;;;;;;;;;18.88;nan;98374.56;5083502;28;19924;-66
2023/06/25 06:17:09;;;;;;;;;;;;;;;18.93;nan;98366.03;5080974;28;19971;-66
2023/06/25 06:19:37;;;;;;;;;;;;;;;18.99;nan;98369.31;5063098;28;19936;-67
2023/06/25 06:22:08;;;;;;;;;;;;;;;19.08;nan;98372.72;5079122;28;19939;-65
2023/06/25 06:24:36;;;;;;;;;;;;;;;19.20;nan;98380.06;5079852;28;19924;-67
2023/06/25 06:27:07;;;;;;;;;;;;;;;19.28;nan;98381.81;5060130;28;19939;-65
2023/06/25 06:29:37;;;;;;;;;;;;;;;19.32;nan;98378.00;5081505;28;19928;-65
2023/06/25 06:32:05;;;;;;;;;;;;;;;19.39;nan;98382.91;5078124;28;20542;-65
2023/06/25 06:34:35;;;;;;;;;;;;;;;19.49;nan;98393.34;5082796;28;19969;-65
2023/06/25 06:37:02;;;;;;;;;;;;;;;19.57;nan;98394.31;5084197;28;20370;-65
2023/06/25 06:39:30;;;;;;;;;;;;;;;19.61;nan;98384.22;5084173;28;19960;-66
2023/06/25 06:41:58;;;;;;;;;;;;;;;19.63;nan;98388.19;5088586;28;19993;-65
2023/06/25 06:44:26;;;;;;;;;;;;;;;19.70;nan;98387.56;5078542;28;19977;-64
2023/06/25 06:46:54;;;;;;;;;;;;;;;19.78;nan;98383.81;5080340;28;20023;-65
2023/06/25 06:49:24;;;;;;;;;;;;;;;19.89;nan;98384.84;5082436;28;19924;-65
2023/06/25 06:51:54;;;;;;;;;;;;;;;19.96;nan;98383.38;5088785;28;20416;-65
2023/06/25 06:54:21;;;;;;;;;;;;;;;19.96;nan;98380.63;5077953;28;20345;-64
2023/06/25 06:56:49;;;;;;;;;;;;;;;19.99;nan;98379.91;5066008;28;19932;-64
2023/06/25 06:59:17;;;;;;;;;;;;;;;20.04;nan;98380.44;5082405;28;19928;-64
2023/06/25 07:01:45;;;;;;;;;;;;;;;20.02;nan;98376.41;5060006;28;19931;-67
2023/06/25 07:04:13;;;;;;;;;;;;;;;20.11;nan;98379.78;5057609;28;19971;-63
2023/06/25 07:06:43;;;;;;;;;;;;;;;20.21;nan;98375.63;5078814;28;19932;-64
2023/06/25 07:09:12;;;;;;;;;;;;;;;20.30;nan;98377.00;5056336;28;19928;-66
2023/06/25 07:11:41;;;;;;;;;;;;;;;20.38;nan;98381.50;5075391;28;19932;-65
2023/06/25 07:14:09;;;;;;;;;;;;;;;20.47;nan;98377.75;5091357;28;19928;-64
2023/06/25 07:16:37;;;;;;;;;;;;;;;20.50;nan;98377.81;5077706;28;20356;-67
2023/06/25 07:19:05;;;;;;;;;;;;;;;20.60;nan;98376.41;5079295;28;19928;-65
2023/06/25 07:21:33;;;;;;;;;;;;;;;20.67;nan;98369.06;5073129;28;20518;-68
2023/06/25 07:24:00;;;;;;;;;;;;;;;20.74;nan;98373.91;5080594;28;19928;-66
2023/06/25 07:26:32;;;;;;;;;;;;;;;20.80;nan;98377.16;5078718;28;19955;-67
2023/06/25 07:29:00;;;;;;;;;;;;;;;20.85;nan;98363.84;5079612;28;19935;-66
2023/06/25 07:31:28;;;;;;;;;;;;;;;20.97;nan;98367.59;5056717;28;19967;-64
2023/06/25 07:33:56;;;;;;;;;;;;;;;20.97;nan;98378.66;5092152;28;19936;-64
2023/06/25 07:36:24;;;;;;;;;;;;;;;21.01;nan;98373.97;5088798;28;19924;-63
2023/06/25 07:38:57;;;;;;;;;;;;;;;21.09;nan;98384.78;5080988;28;20358;-63
2023/06/25 07:41:25;;;;;;;;;;;;;;;21.07;nan;98378.03;5092807;28;19940;-63
2023/06/25 07:43:55;;;;;;;;;;;;;;;21.15;nan;98371.47;5077676;28;19970;-63
2023/06/25 07:46:23;;;;;;;;;;;;;;;21.28;nan;98372.06;5060441;28;19936;-63
2023/06/25 07:48:51;;;;;;;;;;;;;;;21.26;nan;98371.63;5084647;28;19924;-65
2023/06/25 07:51:18;;;;;;;;;;;;;;;21.35;nan;98367.44;5076549;28;20528;-64
2023/06/25 07:53:46;;;;;;;;;;;;;;;21.44;nan;98372.72;5080545;28;19959;-66
2023/06/25 07:56:14;;;;;;;;;;;;;;;21.61;nan;98371.38;5062618;28;19982;-64
2023/06/25 07:58:42;;;;;;;;;;;;;;;21.65;nan;98366.72;5082294;28;19928;-64
2023/06/25 08:01:12;;;;;;;;;;;;;;;21.72;nan;98364.03;5084841;28;20321;-64
2023/06/25 08:03:40;;;;;;;;;;;;;;;21.84;nan;98368.53;5091158;28;19986;-64
2023/06/25 08:06:10;;;;;;;;;;;;;;;21.94;nan;98362.34;5074787;28;20372;-69
2023/06/25 08:08:38;;;;;;;;;;;;;;;21.89;nan;98359.91;5079104;28;19931;-67
2023/06/25 08:11:06;;;;;;;;;;;;;;;21.87;nan;98363.06;5081379;28;19924;-66
2023/06/25 08:13:33;;;;;;;;;;;;;;;22.00;nan;98357.28;5079036;28;19929;-65
2023/06/25 08:16:01;;;;;;;;;;;;;;;21.98;nan;98350.16;5076215;28;19932;-65
2023/06/25 08:18:30;;;;;;;;;;;;;;;22.03;nan;98349.03;5060334;28;19928;-64
2023/06/25 08:20:59;;;;;;;;;;;;;;;22.02;nan;98343.88;5081778;28;19934;-62
2023/06/25 08:23:26;;;;;;;;;;;;;;;22.05;nan;98341.19;5060818;28;20338;-63
2023/06/25 08:25:54;;;;;;;;;;;;;;;22.31;nan;98339.50;5087144;28;19995;-61
2023/06/25 08:28:22;;;;;;;;;;;;;;;22.33;nan;98337.16;5077911;28;19929;-63
2023/06/25 08:30:50;;;;;;;;;;;;;;;22.32;nan;98339.16;5086871;28;19924;-62
2023/06/25 08:33:18;;;;;;;;;;;;;;;22.49;nan;98341.28;5077754;28;20047;-62
2023/06/25 08:35:47;;;;;;;;;;;;;;;22.47;nan;98337.31;5082927;28;20374;-61
2023/06/25 08:38:17;;;;;;;;;;;;;;;22.47;nan;98334.53;5078258;28;20370;-62
2023/06/25 08:40:45;;;;;;;;;;;;;;;22.57;nan;98335.81;5082517;28;20032;-61
2023/06/25 08:43:13;;;;;;;;;;;;;;;22.52;nan;98330.63;5057158;28;19970;-62
2023/06/25 08:45:42;;;;;;;;;;;;;;;22.58;nan;98331.88;5058181;28;19972;-63
2023/06/25 08:48:10;;;;;;;;;;;;;;;22.82;nan;98327.75;5063240;28;19989;-62
2023/06/25 08:50:39;;;;;;;;;;;;;;;22.67;nan;98326.81;5059775;28;19924;-62
2023/06/25 08:53:08;;;;;;;;;;;;;;;22.77;nan;98326.13;5077683;28;19982;-63
2023/06/25 08:55:36;;;;;;;;;;;;;;;22.84;nan;98330.94;5062052;28;20011;-62
2023/06/25 08:58:04;;;;;;;;;;;;;;;22.95;nan;98326.31;5074082;28;19950;-66
2023/06/25 09:00:32;;;;;;;;;;;;;;;22.91;nan;98326.28;5077657;28;19925;-63
2023/06/25 09:03:00;;;;;;;;;;;;;;;22.92;nan;98314.03;5077229;28;19928;-63
2023/06/25 09:05:28;;;;;;;;;;;;;;;23.06;nan;98324.41;5081855;28;20027;-62
2023/06/25 09:07:57;;;;;;;;;;;;;;;23.12;nan;98319.34;5083104;28;20355;-61
2023/06/25 09:10:31;;;;;;;;;;;;;;;23.16;nan;98320.13;5082566;28;19924;-61
2023/06/25 09:13:01;;;;;;;;;;;;;;;23.13;nan;98318.16;5076531;28;19951;-62
2023/06/25 09:15:28;;;;;;;;;;;;;;;23.14;nan;98303.09;5057084;28;19925;-63
2023/06/25 09:17:56;;;;;;;;;;;;;;;23.22;nan;98301.97;5074956;28;20357;-62
2023/06/25 09:20:24;;;;;;;;;;;;;;;23.31;nan;98307.97;5081818;28;19975;-62
2023/06/25 09:22:53;;;;;;;;;;;;;;;23.23;nan;98309.13;5066397;28;19995;-62
2023/06/25 09:25:21;;;;;;;;;;;;;;;23.25;nan;98312.28;5070941;28;19924;-64
2023/06/25 09:27:51;;;;;;;;;;;;;;;23.28;nan;98314.31;5084199;28;19959;-63
2023/06/25 09:30:18;;;;;;;;;;;;;;;23.24;nan;98308.72;5084019;28;20035;-63
2023/06/25 09:32:50;;;;;;;;;;;;;;;23.27;nan;98309.91;5065114;28;20018;-63
2023/06/25 09:35:19;;;;;;;;;;;;;;;23.39;nan;98312.38;5061159;28;20451;-63
2023/06/25 09:37:46;;;;;;;;;;;;;;;23.35;nan;98305.22;5077288;28;19970;-63
2023/06/25 09:40:14;;;;;;;;;;;;;;;23.34;nan;98301.66;5082728;28;19929;-65
2023/06/25 09:42:43;;;;;;;;;;;;;;;23.42;nan;98300.50;5083620;28;19947;-67
2023/06/25 09:45:15;;;;;;;;;;;;;;;23.42;nan;98297.72;5082793;28;20381;-66
2023/06/25 09:47:43;;;;;;;;;;;;;;;23.56;nan;98308.13;5085078;28;19928;-73
2023/06/25 09:50:13;;;;;;;;;;;;;;;23.71;nan;98295.97;5089007;28;19924;-61
2023/06/25 09:52:42;;;;;;;;;;;;;;;23.60;nan;98291.50;5078574;28;19928;-66
2023/06/25 09:55:10;;;;;;;;;;;;;;;23.58;nan;98297.44;5083766;28;19924;-71
2023/06/25 09:57:38;;;;;;;;;;;;;;;23.70;nan;98299.91;5088139;28;19953;-72
2023/06/25 10:00:06;;;;;;;;;;;;;;;23.61;nan;98293.88;5063120;28;19928;-68
2023/06/25 10:02:39;;;;;;;;;;;;;;;23.62;nan;98294.69;5085852;28;20377;-69
2023/06/25 10:05:07;;;;;;;;;;;;;;;23.70;nan;98293.53;5079425;28;20028;-68
2023/06/25 10:07:35;;;;;;;;;;;;;;;23.75;nan;98284.84;5076720;28;19967;-68
2023/06/25 10:10:03;;;;;;;;;;;;;;;23.93;nan;98284.94;5078930;28;19924;-68
2023/06/25 10:12:34;;;;;;;;;;;;;;;23.85;nan;98283.31;5068658;28;19924;-63
2023/06/25 10:15:04;;;;;;;;;;;;;;;24.25;nan;98290.59;5088004;28;19928;-65
2023/06/25 10:17:32;;;;;;;;;;;;;;;24.06;nan;98288.94;5087473;28;19924;-65
2023/06/25 10:20:01;;;;;;;;;;;;;;;23.93;nan;98276.63;5082256;28;19960;-65
2023/06/25 10:22:29;;;;;;;;;;;;;;;24.00;nan;98269.09;5087383;28;20386;-65
2023/06/25 10:24:57;;;;;;;;;;;;;;;24.09;nan;98268.75;5085382;28;20316;-65
2023/06/25 10:27:29;;;;;;;;;;;;;;;24.28;nan;98270.34;5070778;28;19955;-65
2023/06/25 10:29:57;;;;;;;;;;;;;;;24.31;nan;98270.38;5084191;28;19937;-65
2023/06/25 10:32:26;;;;;;;;;;;;;;;24.45;nan;98264.09;5086538;28;19970;-65
2023/06/25 10:34:54;;;;;;;;;;;;;;;24.63;nan;98271.63;5081948;28;19925;-65
2023/06/25 10:37:28;;;;;;;;;;;;;;;24.46;nan;98273.22;5083181;28;19939;-65
2023/06/25 10:40:01;;;;;;;;;;;;;;;24.32;nan;98265.59;5080667;28;19931;-65
2023/06/25 10:42:30;;;;;;;;;;;;;;;24.30;nan;98266.00;5087796;28;19932;-65
2023/06/25 10:45:00;;;;;;;;;;;;;;;24.45;nan;98261.31;5085152;28;19924;-66
2023/06/25 10:47:28;;;;;;;;;;;;;;;24.61;nan;98268.44;5080726;28;20807;-65
2023/06/25 10:49:56;;;;;;;;;;;;;;;24.72;nan;98263.72;5092458;28;19986;-65
2023/06/25 10:52:25;;;;;;;;;;;;;;;24.64;nan;98246.22;5075468;28;20432;-66
2023/06/25 10:54:54;;;;;;;;;;;;;;;24.59;nan;98248.59;5084517;28;19956;-65
2023/06/25 10:57:22;;;;;;;;;;;;;;;24.79;nan;98247.03;5084309;28;19932;-66
2023/06/25 10:59:51;;;;;;;;;;;;;;;24.74;nan;98244.66;5084183;28;19924;-65
2023/06/25 11:02:20;;;;;;;;;;;;;;;24.74;nan;98239.88;5096203;28;19924;-66
2023/06/25 11:04:50;;;;;;;;;;;;;;;24.66;nan;98238.31;5080072;28;19931;-65
2023/06/25 11:07:18;;;;;;;;;;;;;;;24.56;nan;98234.34;5069092;28;20550;-65
2023/06/25 11:09:50;;;;;;;;;;;;;;;24.67;nan;98239.09;5080842;28;19932;-65
2023/06/25 11:12:18;;;;;;;;;;;;;;;24.74;nan;98231.53;5057316;28;19928;-65
2023/06/25 11:14:46;;;;;;;;;;;;;;;24.84;nan;98232.72;5069030;28;19924;-66
2023/06/25 11:17:14;;;;;;;;;;;;;;;24.75;nan;98229.56;5084499;28;19970;-67
2023/06/25 11:19:42;;;;;;;;;;;;;;;24.75;nan;98224.00;5066701;28;19927;-65
2023/06/25 11:22:10;;;;;;;;;;;;;;;24.75;nan;98221.22;5069206;28;19924;-66
2023/06/25 11:24:38;;;;;;;;;;;;;;;25.13;nan;98222.38;5085169;28;20372;-66
2023/06/25 11:27:07;;;;;;;;;;;;;;;25.21;nan;98223.16;5084707;28;19924;-66
2023/06/25 11:29:35;;;;;;;;;;;;;;;25.01;nan;98209.66;5076752;28;20327;-65
2023/06/25 11:32:05;;;;;;;;;;;;;;;25.12;nan;98211.66;5077130;28;19928;-66
2023/06/25 11:34:33;;;;;;;;;;;;;;;24.91;nan;98216.03;5063304;28;20820;-67
2023/06/25 11:37:10;;;;;;;;;;;;;;;24.89;nan;98212.88;5084924;28;20018;-66
2023/06/25 11:39:42;;;;;;;;;;;;;;;25.26;nan;98201.31;5065532;28;19923;-66
2023/06/25 11:42:12;;;;;;;;;;;;;;;25.38;nan;98204.84;5069865;28;19954;-65
2023/06/25 11:44:40;;;;;;;;;;;;;;;25.39;nan;98196.09;5065429;28;19931;-65
2023/06/25 11:47:10;;;;;;;;;;;;;;;25.37;nan;98190.16;5085802;28;20015;-65
2023/06/25 11:49:39;;;;;;;;;;;;;;;25.60;nan;98192.44;5080408;28;19931;-65
2023/06/25 11:52:07;;;;;;;;;;;;;;;25.42;nan;98183.38;5084110;28;19939;-64
2023/06/25 11:54:35;;;;;;;;;;;;;;;25.36;nan;98190.56;5083806;28;19931;-64
2023/06/25 11:57:03;;;;;;;;;;;;;;;25.52;nan;98180.56;5081676;28;20039;-64
2023/06/25 11:59:32;;;;;;;;;;;;;;;25.63;nan;98177.72;5063976;28;19967;-63
2023/06/25 12:02:00;;;;;;;;;;;;;;;25.67;nan;98183.25;5082140;28;19960;-65
2023/06/25 12:04:30;;;;;;;;;;;;;;;25.49;nan;98183.34;5082128;28;20442;-64
2023/06/25 12:06:58;;;;;;;;;;;;;;;25.52;nan;98176.97;5068166;28;19934;-63
2023/06/25 12:09:27;;;;;;;;;;;;;;;25.52;nan;98175.00;5056562;28;19924;-62
2023/06/25 12:11:55;;;;;;;;;;;;;;;25.29;nan;98169.09;5061517;28;21966;-64
2023/06/25 12:14:23;;;;;;;;;;;;;;;25.29;nan;98163.53;5077775;28;19967;-64
2023/06/25 12:16:52;;;;;;;;;;;;;;;25.66;nan;98162.19;5080780;28;19924;-65
2023/06/25 12:19:20;;;;;;;;;;;;;;;25.88;nan;98158.09;5077066;28;20400;-65
2023/06/25 12:21:48;;;;;;;;;;;;;;;25.89;nan;98154.16;5064753;28;19925;-64
2023/06/25 12:24:16;;;;;;;;;;;;;;;25.54;nan;98155.09;5083409;28;19932;-66
2023/06/25 12:26:44;;;;;;;;;;;;;;;25.58;nan;98155.88;5096498;28;19928;-68
2023/06/25 12:29:12;;;;;;;;;;;;;;;25.74;nan;98155.41;5077566;28;20355;-66
2023/06/25 12:31:43;;;;;;;;;;;;;;;25.50;nan;98159.88;5077179;28;20286;-65
2023/06/25 12:34:12;;;;;;;;;;;;;;;25.43;nan;98155.16;5080527;28;20022;-65
2023/06/25 12:36:41;;;;;;;;;;;;;;;25.82;nan;98146.63;5078646;28;19928;-65
2023/06/25 12:39:09;;;;;;;;;;;;;;;25.67;nan;98145.09;5083847;28;19924;-66
2023/06/25 12:41:37;;;;;;;;;;;;;;;25.56;nan;98156.28;5063902;28;19928;-65
2023/06/25 12:44:05;;;;;;;;;;;;;;;25.70;nan;98149.06;5081551;28;19936;-64
2023/06/25 12:46:32;;;;;;;;;;;;;;;25.79;nan;98143.88;5067530;28;20011;-65
2023/06/25 12:49:00;;;;;;;;;;;;;;;25.71;nan;98139.50;5084372;28;20030;-64
2023/06/25 12:51:30;;;;;;;;;;;;;;;25.51;nan;98134.44;5062317;28;20984;-64
2023/06/25 12:53:58;;;;;;;;;;;;;;;25.72;nan;98135.53;5079541;28;20338;-65
2023/06/25 12:56:27;;;;;;;;;;;;;;;25.47;nan;98133.69;5064094;28;20014;-65
2023/06/25 12:58:54;;;;;;;;;;;;;;;25.47;nan;98136.47;5081578;28;20373;-66
2023/06/25 13:01:22;;;;;;;;;;;;;;;25.36;nan;98126.59;5083198;28;20002;-64
2023/06/25 13:03:53;;;;;;;;;;;;;;;25.42;nan;98122.97;5078061;28;20401;-64
2023/06/25 13:06:21;;;;;;;;;;;;;;;25.56;nan;98122.88;5063423;28;19936;-65
2023/06/25 13:08:50;;;;;;;;;;;;;;;25.53;nan;98125.72;5098438;28;19930;-65
2023/06/25 13:11:18;;;;;;;;;;;;;;;25.47;nan;98119.78;5083061;28;19928;-66
2023/06/25 13:13:46;;;;;;;;;;;;;;;25.55;nan;98121.31;5081716;28;19932;-64